createdAt,value
2022-12-06T00:01:40.480Z,29.90
2022-12-06T00:04:12.260Z,30.17
2022-12-06T00:06:41.878Z,30.97
2022-12-06T00:09:12.627Z,31.53
2022-12-06T00:11:40.218Z,30.67
2022-12-06T00:14:08.735Z,31.70
2022-12-06T00:16:37.977Z,33.37
2022-12-06T00:19:06.167Z,31.80
2022-12-06T00:21:36.735Z,32.20
2022-12-06T00:24:06.774Z,33.90
2022-12-06T00:26:37.344Z,37.30
2022-12-06T00:29:06.570Z,40.93
2022-12-06T00:31:35.663Z,56.33
2022-12-06T00:34:04.995Z,68.57
2022-12-06T00:36:35.106Z,166.20
2022-12-06T00:39:03.954Z,255.20
2022-12-06T00:41:31.566Z,286.93
2022-12-06T00:43:59.467Z,287.70
2022-12-06T00:46:30.350Z,317.27
2022-12-06T00:48:59.277Z,310.43
2022-12-06T00:51:30.287Z,337.23
2022-12-06T00:53:58.863Z,305.00
2022-12-06T00:56:26.833Z,332.37
2022-12-06T00:58:54.503Z,346.57
2022-12-06T01:01:23.861Z,332.90
2022-12-06T01:03:53.547Z,339.33
2022-12-06T01:06:28.022Z,311.67
2022-12-06T01:08:58.060Z,337.87
2022-12-06T01:11:26.907Z,328.77
2022-12-06T01:13:55.227Z,339.50
2022-12-06T01:16:25.078Z,322.77
2022-12-06T01:18:53.970Z,318.47
2022-12-06T01:21:22.872Z,311.03
2022-12-06T01:23:50.714Z,311.80
2022-12-06T01:26:21.551Z,308.17
2022-12-06T01:28:49.507Z,320.70
2022-12-06T01:31:18.059Z,314.20
2022-12-06T01:33:46.516Z,312.50
2022-12-06T01:36:18.344Z,300.30
2022-12-06T01:38:49.615Z,268.50
2022-12-06T01:41:17.254Z,248.20
2022-12-06T01:43:46.810Z,243.60
2022-12-06T01:46:23.227Z,220.17
2022-12-06T01:48:54.002Z,195.70
2022-12-06T01:51:22.155Z,178.63
2022-12-06T01:53:51.791Z,121.10
2022-12-06T01:56:20.827Z,65.53
2022-12-06T01:58:53.335Z,34.30
2022-12-06T02:01:20.949Z,34.83
2022-12-06T02:03:49.602Z,33.30
2022-12-06T02:06:18.298Z,33.40
2022-12-06T02:08:47.156Z,32.73
2022-12-06T02:11:14.753Z,33.07
2022-12-06T02:13:42.922Z,32.20
2022-12-06T02:16:24.552Z,32.25
2022-12-06T02:18:57.409Z,32.07
2022-12-06T02:21:33.926Z,32.10
2022-12-06T02:24:40.634Z,32.00
2022-12-06T02:27:56.123Z,32.03
2022-12-06T02:30:43.754Z,31.70
2022-12-06T02:33:20.056Z,31.00
2022-12-06T02:35:51.724Z,31.80
2022-12-06T02:38:26.884Z,32.27
2022-12-06T02:40:59.475Z,31.50
2022-12-06T02:43:32.078Z,32.70
2022-12-06T02:46:04.097Z,31.90
2022-12-06T02:48:33.567Z,31.47
2022-12-06T02:51:04.191Z,31.87
2022-12-06T02:53:35.332Z,31.10
2022-12-06T02:56:03.371Z,31.73
2022-12-06T02:58:35.484Z,31.00
2022-12-06T03:01:07.768Z,30.43
2022-12-06T03:04:02.348Z,31.37
2022-12-06T03:07:01.502Z,30.87
2022-12-06T03:09:45.975Z,32.03
2022-12-06T03:12:24.235Z,32.20
2022-12-06T03:15:01.867Z,33.00
2022-12-06T03:17:40.526Z,32.90
2022-12-06T03:20:12.433Z,33.20
2022-12-06T03:22:43.274Z,35.73
2022-12-06T03:25:12.059Z,33.70
2022-12-06T03:27:42.113Z,33.97
2022-12-06T03:33:00.762Z,34.63
2022-12-06T03:35:31.824Z,35.43
2022-12-06T03:38:05.425Z,35.47
2022-12-06T03:40:37.738Z,34.90
2022-12-06T03:43:06.426Z,34.00
2022-12-06T03:45:40.182Z,35.73
2022-12-06T03:48:13.648Z,34.00
2022-12-06T03:50:46.124Z,34.93
2022-12-06T03:53:13.841Z,36.07
2022-12-06T03:55:42.339Z,33.57
2022-12-06T03:58:09.926Z,34.20
2022-12-06T04:00:37.611Z,33.63
2022-12-06T04:03:05.323Z,33.70
2022-12-06T04:05:34.286Z,33.13
2022-12-06T04:08:01.930Z,35.13
2022-12-06T04:10:29.579Z,34.40
2022-12-06T04:13:02.940Z,35.90
2022-12-06T04:15:32.798Z,34.53
2022-12-06T04:18:13.293Z,35.93
2022-12-06T04:21:01.706Z,33.90
2022-12-06T04:23:30.399Z,37.30
2022-12-06T04:25:58.025Z,35.47
2022-12-06T04:28:43.219Z,34.63
2022-12-06T04:31:28.543Z,34.90
2022-12-06T04:34:13.530Z,35.53
2022-12-06T04:37:00.559Z,36.43
2022-12-06T04:39:28.196Z,34.87
2022-12-06T04:42:13.936Z,36.40
2022-12-06T04:44:41.756Z,37.60
2022-12-06T04:47:10.043Z,36.40
2022-12-06T04:49:38.684Z,36.50
2022-12-06T04:52:09.172Z,37.30
2022-12-06T04:54:36.813Z,39.67
2022-12-06T04:57:11.128Z,39.07
2022-12-06T04:59:39.364Z,38.70
2022-12-06T05:02:07.703Z,37.40
2022-12-06T05:04:35.563Z,36.70
2022-12-06T05:07:03.142Z,36.60
2022-12-06T05:09:32.105Z,38.30
2022-12-06T05:11:59.667Z,36.47
2022-12-06T05:14:27.309Z,37.70
2022-12-06T05:16:54.923Z,37.47
2022-12-06T05:19:22.591Z,35.17
2022-12-06T05:21:50.200Z,37.60
2022-12-06T05:24:18.264Z,36.83
2022-12-06T05:26:47.201Z,38.03
2022-12-06T05:29:14.784Z,36.80
2022-12-06T05:31:42.379Z,38.87
2022-12-06T05:34:10.606Z,38.27
2022-12-06T05:36:38.186Z,38.90
2022-12-06T05:39:05.858Z,38.30
2022-12-06T05:41:34.087Z,39.37
2022-12-06T05:44:03.062Z,38.03
2022-12-06T05:46:30.675Z,37.87
2022-12-06T05:48:58.255Z,37.73
2022-12-06T05:51:25.887Z,38.60
2022-12-06T05:53:53.500Z,38.20
2022-12-06T05:56:21.379Z,39.27
2022-12-06T05:58:48.979Z,39.60
2022-12-06T06:01:17.927Z,38.83
2022-12-06T06:03:47.749Z,39.50
2022-12-06T06:06:15.941Z,39.27
2022-12-06T06:08:43.902Z,40.30
2022-12-06T06:11:11.703Z,39.10
2022-12-06T06:13:39.342Z,40.20
2022-12-06T06:16:08.005Z,40.00
2022-12-06T06:18:37.203Z,39.60
2022-12-06T06:21:05.367Z,39.43
2022-12-06T06:23:33.223Z,38.77
2022-12-06T06:26:00.850Z,39.23
2022-12-06T06:28:28.441Z,38.63
2022-12-06T06:30:56.022Z,39.67
2022-12-06T06:33:23.616Z,39.43
2022-12-06T06:35:52.552Z,39.87
2022-12-06T06:38:20.181Z,40.10
2022-12-06T06:40:47.795Z,40.50
2022-12-06T06:43:21.464Z,38.47
2022-12-06T06:45:53.358Z,39.40
2022-12-06T06:48:21.882Z,39.63
2022-12-06T06:50:55.454Z,38.10
2022-12-06T06:53:27.395Z,39.10
2022-12-06T06:55:55.025Z,39.30
2022-12-06T06:58:22.729Z,40.10
2022-12-06T07:00:54.102Z,39.40
2022-12-06T07:03:22.310Z,39.33
2022-12-06T07:05:52.708Z,37.97
2022-12-06T07:08:20.448Z,39.23
2022-12-06T07:10:49.930Z,38.40
2022-12-06T07:13:17.659Z,38.63
2022-12-06T07:15:45.556Z,39.10
2022-12-06T07:18:13.539Z,42.80
2022-12-06T07:20:41.179Z,39.20
2022-12-06T07:23:08.783Z,38.57
2022-12-06T07:25:36.600Z,37.90
2022-12-06T07:28:06.366Z,41.17
2022-12-06T07:30:34.432Z,39.93
2022-12-06T07:33:02.406Z,37.13
2022-12-06T07:35:48.846Z,40.50
2022-12-06T07:38:17.606Z,38.33
2022-12-06T07:43:51.630Z,38.30
2022-12-06T07:46:19.218Z,37.73
2022-12-06T07:48:46.850Z,37.50
2022-12-06T07:51:14.460Z,35.80
2022-12-06T07:53:42.049Z,35.43
2022-12-06T07:56:10.388Z,35.90
2022-12-06T07:58:39.351Z,36.00
2022-12-06T08:01:07.057Z,36.93
2022-12-06T08:03:34.727Z,36.43
2022-12-06T08:06:02.313Z,35.50
2022-12-06T08:08:29.943Z,35.70
2022-12-06T08:10:59.911Z,34.97
2022-12-06T08:13:27.603Z,33.73
2022-12-06T08:15:57.280Z,35.77
2022-12-06T08:18:25.588Z,34.33
2022-12-06T08:20:53.304Z,33.73
2022-12-06T08:23:21.275Z,35.57
2022-12-06T08:25:57.567Z,33.47
2022-12-06T08:28:25.170Z,33.50
2022-12-06T08:30:55.078Z,33.70
2022-12-06T08:33:28.229Z,33.43
2022-12-06T08:35:55.827Z,33.50
2022-12-06T08:38:23.404Z,33.90
2022-12-06T08:40:51.027Z,32.77
2022-12-06T08:43:18.627Z,33.40
2022-12-06T08:45:51.527Z,32.20
2022-12-06T08:48:19.595Z,33.23
2022-12-06T08:50:48.567Z,32.10
2022-12-06T08:53:16.200Z,31.07
2022-12-06T08:55:43.803Z,33.00
2022-12-06T08:58:11.411Z,33.10
2022-12-06T09:00:38.976Z,31.37
2022-12-06T09:03:06.576Z,31.60
2022-12-06T09:05:36.467Z,30.97
2022-12-06T09:08:05.475Z,30.87
2022-12-06T09:10:33.148Z,31.47
2022-12-06T09:13:00.783Z,30.73
2022-12-06T09:15:28.435Z,32.20
2022-12-06T09:17:56.024Z,31.47
2022-12-06T09:20:23.856Z,31.93
2022-12-06T09:22:51.613Z,31.57
2022-12-06T09:25:20.582Z,32.73
2022-12-06T09:27:48.969Z,32.50
2022-12-06T09:30:17.084Z,33.17
2022-12-06T09:32:45.440Z,33.50
2022-12-06T09:35:15.614Z,32.90
2022-12-06T09:37:44.903Z,34.07
2022-12-06T09:40:17.842Z,33.77
2022-12-06T09:43:08.599Z,34.43
2022-12-06T09:45:49.939Z,32.93
2022-12-06T09:48:36.817Z,32.77
2022-12-06T09:51:15.562Z,33.60
2022-12-06T09:53:57.815Z,33.07
2022-12-06T09:56:29.665Z,32.43
2022-12-06T09:59:11.303Z,30.07
2022-12-06T10:01:50.735Z,30.50
2022-12-06T10:04:39.286Z,30.33
2022-12-06T10:07:16.456Z,29.23
2022-12-06T10:09:54.040Z,29.97
2022-12-06T10:12:36.103Z,29.73
2022-12-06T10:15:21.520Z,30.20
2022-12-06T10:18:08.648Z,30.83
2022-12-06T10:20:44.067Z,28.97
2022-12-06T10:23:23.838Z,29.60
2022-12-06T10:26:02.080Z,29.23
2022-12-06T10:28:39.440Z,30.13
2022-12-06T10:31:19.960Z,29.83
2022-12-06T10:33:55.231Z,29.53
2022-12-06T10:36:34.610Z,30.10
2022-12-06T10:39:10.331Z,29.63
2022-12-06T10:41:44.843Z,28.77
2022-12-06T10:44:20.816Z,29.80
2022-12-06T10:47:04.851Z,29.77
2022-12-06T10:49:40.680Z,30.70
2022-12-06T10:52:23.815Z,30.10
2022-12-06T10:54:59.797Z,30.63
2022-12-06T10:57:37.415Z,30.40
2022-12-06T11:00:15.798Z,30.73
2022-12-06T11:02:53.444Z,29.87
2022-12-06T11:05:26.739Z,28.90
2022-12-06T11:08:02.395Z,28.47
2022-12-06T11:10:33.503Z,28.83
2022-12-06T11:13:12.725Z,28.97
2022-12-06T11:15:46.115Z,28.20
2022-12-06T11:18:18.017Z,28.63
2022-12-06T11:20:50.440Z,28.83
2022-12-06T11:23:24.432Z,28.10
2022-12-06T11:26:03.817Z,27.07
2022-12-06T11:28:37.529Z,27.10
2022-12-06T11:31:17.156Z,24.93
2022-12-06T11:33:46.651Z,27.70
2022-12-06T11:36:14.531Z,27.13
2022-12-06T11:38:45.168Z,26.83
2022-12-06T11:41:18.720Z,26.10
2022-12-06T11:43:46.705Z,28.00
2022-12-06T11:46:15.853Z,27.00
2022-12-06T11:48:44.174Z,26.40
2022-12-06T11:51:18.648Z,26.20
2022-12-06T11:53:58.681Z,26.47
2022-12-06T11:56:28.483Z,27.20
2022-12-06T11:59:06.027Z,26.57
2022-12-06T12:01:42.631Z,27.50
2022-12-06T12:04:40.851Z,27.20
2022-12-06T12:07:17.316Z,26.07
2022-12-06T12:09:53.028Z,25.43
2022-12-06T12:12:23.907Z,25.60
2022-12-06T12:14:58.138Z,25.23
2022-12-06T12:17:30.583Z,24.17
2022-12-06T12:20:00.031Z,24.47
2022-12-06T12:22:36.403Z,24.30
2022-12-06T12:25:22.498Z,24.27
2022-12-06T12:27:52.275Z,25.00
2022-12-06T12:30:42.347Z,24.80
2022-12-06T12:33:19.945Z,25.60
2022-12-06T12:35:49.987Z,25.00
2022-12-06T12:38:27.883Z,24.47
2022-12-06T12:40:57.957Z,23.37
2022-12-06T12:43:28.265Z,24.40
2022-12-06T12:46:17.773Z,24.00
2022-12-06T12:48:47.236Z,22.63
2022-12-06T12:51:29.280Z,22.40
2022-12-06T12:54:01.978Z,21.77
2022-12-06T12:56:32.405Z,21.60
2022-12-06T12:59:03.176Z,22.30
2022-12-06T13:01:44.921Z,22.83
2022-12-06T13:04:18.364Z,23.00
2022-12-06T13:06:50.455Z,23.50
2022-12-06T13:09:25.144Z,23.07
2022-12-06T13:11:58.299Z,23.77
2022-12-06T13:14:28.514Z,23.30
2022-12-06T13:17:01.579Z,22.77
2022-12-06T13:19:34.651Z,23.33
2022-12-06T13:22:04.042Z,24.53
2022-12-06T13:24:36.532Z,24.40
2022-12-06T13:27:09.499Z,24.57
2022-12-06T13:29:41.794Z,24.70
2022-12-06T13:32:15.675Z,25.13
2022-12-06T13:34:50.367Z,23.93
2022-12-06T13:37:29.987Z,24.47
2022-12-06T13:39:59.732Z,24.50
2022-12-06T13:42:45.443Z,23.60
2022-12-06T13:45:39.969Z,23.87
2022-12-06T13:48:39.445Z,23.27
2022-12-06T13:51:12.913Z,23.50
2022-12-06T13:54:17.796Z,23.97
2022-12-06T13:56:46.897Z,24.20
2022-12-06T13:59:40.106Z,23.47
2022-12-06T14:02:44.308Z,24.30
2022-12-06T14:08:17.120Z,23.30
2022-12-06T14:10:44.904Z,22.50
2022-12-06T14:13:22.164Z,22.20
2022-12-06T14:15:52.128Z,21.70
2022-12-06T14:18:25.859Z,22.87
2022-12-06T14:20:56.200Z,23.27
2022-12-06T14:23:30.219Z,23.57
2022-12-06T14:26:13.964Z,22.83
2022-12-06T14:28:43.235Z,23.27
2022-12-06T14:31:20.213Z,22.90
2022-12-06T14:33:48.219Z,22.87
2022-12-06T14:36:22.423Z,23.50
2022-12-06T14:38:53.515Z,22.80
2022-12-06T14:41:39.903Z,23.40
2022-12-06T14:44:17.194Z,23.93
2022-12-06T14:46:46.858Z,23.10
2022-12-06T14:49:36.380Z,23.97
2022-12-06T14:52:17.395Z,24.93
2022-12-06T14:54:45.918Z,25.00
2022-12-06T14:57:29.428Z,24.93
2022-12-06T15:00:26.349Z,24.13
2022-12-06T15:03:23.722Z,23.70
2022-12-06T15:06:09.167Z,24.60
2022-12-06T15:08:39.344Z,23.53
2022-12-06T15:11:37.155Z,24.10
2022-12-06T15:14:23.852Z,24.40
2022-12-06T15:17:01.391Z,24.97
2022-12-06T15:19:30.464Z,23.87
2022-12-06T15:21:58.183Z,24.30
2022-12-06T15:24:27.363Z,24.70
2022-12-06T15:26:55.497Z,24.97
2022-12-06T15:29:23.443Z,24.43
2022-12-06T15:31:53.307Z,25.60
2022-12-06T15:34:27.648Z,26.30
2022-12-06T15:37:15.565Z,24.97
2022-12-06T15:39:44.491Z,26.70
2022-12-06T15:42:18.287Z,30.67
2022-12-06T15:44:49.580Z,25.00
2022-12-06T15:47:19.448Z,26.10
2022-12-06T15:49:50.907Z,24.57
2022-12-06T15:52:22.984Z,24.13
2022-12-06T15:54:50.972Z,27.83
2022-12-06T15:57:18.598Z,25.30
2022-12-06T15:59:46.189Z,27.17
2022-12-06T16:02:16.444Z,26.03
2022-12-06T16:04:44.481Z,25.00
2022-12-06T16:07:18.511Z,26.30
2022-12-06T16:09:46.655Z,25.43
2022-12-06T16:12:14.276Z,25.70
2022-12-06T16:14:41.981Z,27.03
2022-12-06T16:17:09.663Z,27.73
2022-12-06T16:19:54.588Z,28.73
2022-12-06T16:22:43.756Z,26.73
2022-12-06T16:25:10.434Z,26.57
2022-12-06T16:27:38.022Z,28.90
2022-12-06T16:30:06.699Z,26.10
2022-12-06T16:32:34.540Z,27.23
2022-12-06T16:35:02.373Z,26.27
2022-12-06T16:37:31.584Z,27.90
2022-12-06T16:39:59.187Z,27.40
2022-12-06T16:42:26.771Z,27.90
2022-12-06T16:44:54.454Z,27.60
2022-12-06T16:49:49.718Z,27.27
2022-12-06T16:52:17.934Z,27.90
2022-12-06T16:54:46.963Z,26.93
2022-12-06T16:57:15.757Z,27.23
2022-12-06T16:59:43.652Z,26.10
2022-12-06T17:02:26.226Z,27.20
2022-12-06T17:04:53.936Z,26.40
2022-12-06T17:07:21.534Z,26.10
2022-12-06T17:09:50.494Z,25.80
2022-12-06T17:12:18.320Z,26.07
2022-12-06T17:14:46.202Z,25.40
2022-12-06T17:17:14.826Z,25.60
2022-12-06T17:19:43.270Z,25.30
2022-12-06T17:22:11.753Z,25.40
2022-12-06T17:24:39.957Z,26.83
2022-12-06T17:27:09.993Z,27.03
2022-12-06T17:29:38.025Z,36.47
2022-12-06T17:32:06.314Z,39.70
2022-12-06T17:34:34.085Z,39.90
2022-12-06T17:37:01.671Z,38.17
2022-12-06T17:39:29.271Z,33.57
2022-12-06T17:42:14.603Z,34.00
2022-12-06T17:44:43.563Z,30.03
2022-12-06T17:47:11.159Z,30.70
2022-12-06T17:49:38.946Z,29.20
2022-12-06T17:52:06.817Z,27.80
2022-12-06T17:54:34.542Z,27.50
2022-12-06T17:57:02.191Z,29.53
2022-12-06T17:59:32.094Z,33.87
2022-12-06T18:02:18.423Z,33.80
2022-12-06T18:04:47.452Z,37.30
2022-12-06T18:07:16.241Z,46.27
2022-12-06T18:09:43.910Z,37.70
2022-12-06T18:12:12.441Z,28.90
2022-12-06T18:14:40.069Z,26.83
2022-12-06T18:17:09.077Z,26.50
2022-12-06T18:19:36.851Z,26.70
2022-12-06T18:22:04.655Z,26.80
2022-12-06T18:24:35.921Z,27.30
2022-12-06T18:27:04.689Z,27.77
2022-12-06T18:29:32.321Z,27.77
2022-12-06T18:32:00.016Z,27.20
2022-12-06T18:34:29.193Z,29.43
2022-12-06T18:36:56.863Z,29.20
2022-12-06T18:39:25.321Z,29.17
2022-12-06T18:41:54.306Z,27.90
2022-12-06T18:44:22.443Z,27.93
2022-12-06T18:46:50.381Z,26.93
2022-12-06T18:49:18.394Z,27.50
2022-12-06T18:51:47.366Z,26.37
2022-12-06T18:54:15.004Z,25.80
2022-12-06T18:56:43.556Z,26.70
2022-12-06T18:59:12.321Z,28.43
2022-12-06T19:01:41.154Z,27.50
2022-12-06T19:04:13.241Z,25.80
2022-12-06T19:06:40.899Z,26.07
2022-12-06T19:09:12.951Z,27.33
2022-12-06T19:11:43.537Z,26.47
2022-12-06T19:14:11.537Z,26.93
2022-12-06T19:16:41.238Z,24.87
2022-12-06T19:19:16.276Z,24.80
2022-12-06T19:21:45.665Z,25.77
2022-12-06T19:24:16.751Z,27.13
2022-12-06T19:26:45.432Z,26.20
2022-12-06T19:29:13.135Z,27.07
2022-12-06T19:31:40.777Z,27.70
2022-12-06T19:34:16.286Z,26.80
2022-12-06T19:36:44.918Z,27.60
2022-12-06T19:39:14.482Z,25.57
2022-12-06T19:42:00.880Z,27.20
2022-12-06T19:44:29.243Z,26.33
2022-12-06T19:46:57.381Z,27.90
2022-12-06T19:49:28.563Z,26.77
2022-12-06T19:51:56.494Z,27.73
2022-12-06T19:54:28.877Z,28.70
2022-12-06T19:56:59.158Z,31.33
2022-12-06T19:59:29.142Z,31.07
2022-12-06T20:01:58.387Z,29.17
2022-12-06T20:04:28.600Z,29.30
2022-12-06T20:06:56.854Z,35.77
2022-12-06T20:09:28.170Z,31.10
2022-12-06T20:12:02.245Z,33.27
2022-12-06T20:14:35.304Z,30.23
2022-12-06T20:17:03.533Z,29.90
2022-12-06T20:19:33.592Z,29.17
2022-12-06T20:22:01.203Z,28.53
2022-12-06T20:24:30.658Z,29.60
2022-12-06T20:26:58.278Z,29.17
2022-12-06T20:29:27.072Z,29.50
2022-12-06T20:31:57.970Z,26.73
2022-12-06T20:34:25.975Z,29.77
2022-12-06T20:36:53.748Z,28.00
2022-12-06T20:39:23.592Z,26.90
2022-12-06T20:41:53.787Z,25.67
2022-12-06T20:44:21.938Z,26.83
2022-12-06T20:46:50.722Z,27.10
2022-12-06T20:49:18.683Z,28.80
2022-12-06T20:51:52.420Z,28.23
2022-12-06T20:54:21.230Z,28.73
2022-12-06T20:56:51.577Z,28.23
2022-12-06T20:59:21.270Z,26.97
2022-12-06T21:01:49.260Z,30.40
2022-12-06T21:04:17.700Z,29.00
2022-12-06T21:06:45.521Z,30.60
2022-12-06T21:09:13.343Z,30.13
2022-12-06T21:11:41.082Z,31.60
2022-12-06T21:14:09.009Z,29.13
2022-12-06T21:16:38.568Z,30.57
2022-12-06T21:19:08.028Z,30.43
2022-12-06T21:21:37.731Z,30.60
2022-12-06T21:24:07.847Z,31.70
2022-12-06T21:26:36.416Z,31.50
2022-12-06T21:29:05.068Z,33.00
2022-12-06T21:31:36.262Z,31.47
2022-12-06T21:36:40.434Z,31.30
2022-12-06T21:39:08.874Z,31.10
2022-12-06T21:41:36.550Z,32.07
2022-12-06T21:44:04.159Z,31.67
2022-12-06T21:46:31.819Z,32.30
2022-12-06T21:49:01.219Z,32.03
2022-12-06T21:51:31.860Z,32.67
2022-12-06T21:54:01.520Z,32.57
2022-12-06T21:56:31.055Z,33.13
2022-12-06T21:59:00.086Z,38.10
2022-12-06T22:01:29.354Z,37.13
2022-12-06T22:03:59.026Z,35.83
2022-12-06T22:06:26.871Z,35.23
2022-12-06T22:08:58.271Z,35.23
2022-12-06T22:11:27.532Z,33.20
2022-12-06T22:13:55.235Z,35.80
2022-12-06T22:16:22.877Z,33.63
2022-12-06T22:18:51.655Z,32.70
2022-12-06T22:21:21.382Z,35.10
2022-12-06T22:23:49.359Z,35.80
2022-12-06T22:26:19.211Z,35.23
2022-12-06T22:28:49.207Z,34.10
2022-12-06T22:31:19.272Z,32.87
2022-12-06T22:33:47.705Z,34.60
2022-12-06T22:36:16.281Z,33.80
2022-12-06T22:38:44.531Z,33.67
2022-12-06T22:41:12.219Z,34.27
2022-12-06T22:43:39.876Z,33.27
2022-12-06T22:46:11.789Z,33.30
2022-12-06T22:48:40.538Z,33.43
2022-12-06T22:51:10.279Z,33.43
2022-12-06T22:53:37.988Z,33.47
2022-12-06T22:56:06.156Z,32.20
2022-12-06T22:58:34.049Z,34.60
2022-12-06T23:01:16.015Z,32.97
2022-12-06T23:03:44.884Z,33.10
2022-12-06T23:06:12.586Z,33.73
2022-12-06T23:08:40.267Z,33.30
2022-12-06T23:11:09.737Z,34.33
2022-12-06T23:13:37.351Z,31.13
2022-12-06T23:16:07.936Z,33.23
2022-12-06T23:18:36.992Z,32.87
2022-12-06T23:21:06.863Z,32.73
2022-12-06T23:23:35.050Z,32.40
2022-12-06T23:26:03.817Z,33.57
2022-12-06T23:28:31.578Z,34.80
2022-12-06T23:31:03.419Z,33.73
2022-12-06T23:33:31.528Z,32.33
2022-12-06T23:36:06.234Z,32.37
2022-12-06T23:38:34.102Z,32.60
2022-12-06T23:41:06.524Z,33.63
2022-12-06T23:43:34.670Z,30.60
2022-12-06T23:46:07.506Z,31.90
2022-12-06T23:48:36.343Z,33.00
2022-12-06T23:51:07.111Z,32.90
2022-12-06T23:53:35.804Z,34.30
2022-12-06T23:56:07.702Z,31.70
2022-12-06T23:58:35.783Z,33.10
